Aizhukou, China

55°F / 13°C
Mostly Cloudy
Humidity: 100%
Dew Point: 55°F / 13°C
Wind: NNE at 4 mph / 7 km/h
Pressure: 30.15 in / 1021 hPa (Steady)
Visibility: 3.1 miles / 5.0 kilometers
Clouds: (FEW) : 400 ft / 121 m
Mostly Cloudy (BKN) : 4000 ft / 1219 m
Yesterday's Maximum: 57°F / 14°C
Yesterday's Minimum: 48°F / 9°C approx.
Yesterday's Heating Degree Days: 12 approx.
UV: 0 out of 16
Sunrise:6:37 AM CST
Sunset:5:59 PM CST
Moon Rise:5:39 PM CST
Moon Set:6:13 AM CST
Moon Phase Full Moon
NOAA Weather Radio
No local feed.
METAR ZSFZ 191300Z 02002MPS 350V050 5000 BR FEW004 BKN040 13/13 Q1021 BECMG TL1400 BKN004
As of: 9:00 PM CST on February 19, 2019
Observed at: Fuzhou, China

View Station's History

Local Satellite

Current Satellite Forecast
Region Default Local
No Yes

View Full Screen WunderMap

Forecast

Current Satellite Forecast
Monday
. High: 57° F. / 13° C.

. High: 70° F. / 21° C.

Features

Weather Apps

WunderRadio

Weather Underground Apps
Check out our wide variety of mobile and setup applications.

Weather Underground Applications

Top of Page

© Copyright 2019
The Weather Company, LLC